createdAt,value
2022-08-22T00:00:15.358Z,22.15
2022-08-22T00:03:00.472Z,23.26
2022-08-22T00:03:17.634Z,22.19
2022-08-22T00:06:14.878Z,22.14
2022-08-22T00:09:27.253Z,22.04
2022-08-22T00:12:18.690Z,21.93
2022-08-22T00:15:03.223Z,21.82
2022-08-22T00:17:54.112Z,21.77
2022-08-22T00:20:44.035Z,21.75
2022-08-22T00:23:31.395Z,21.75
2022-08-22T00:26:37.343Z,21.75
2022-08-22T00:30:01.221Z,21.78
2022-08-22T00:32:56.924Z,21.83
2022-08-22T00:35:58.689Z,21.89
2022-08-22T00:38:39.166Z,21.91
2022-08-22T00:41:44.897Z,21.91
2022-08-22T00:44:54.756Z,21.93
2022-08-22T00:47:40.770Z,21.90
2022-08-22T00:50:55.395Z,21.84
2022-08-22T00:54:17.994Z,21.80
2022-08-22T00:57:32.187Z,21.77
2022-08-22T01:00:24.828Z,21.73
2022-08-22T01:03:34.720Z,21.68
2022-08-22T01:06:21.224Z,21.65
2022-08-22T01:09:12.893Z,21.64
2022-08-22T01:12:08.160Z,21.65
2022-08-22T01:14:59.353Z,21.66
2022-08-22T01:17:35.702Z,21.67
2022-08-22T01:20:49.226Z,21.68
2022-08-22T01:24:02.726Z,21.72
2022-08-22T01:26:57.693Z,21.75
2022-08-22T01:29:54.466Z,21.76
2022-08-22T01:33:14.528Z,21.74
2022-08-22T01:36:21.629Z,21.66
2022-08-22T01:39:37.415Z,21.56
2022-08-22T01:42:35.774Z,21.46
2022-08-22T01:45:37.637Z,21.40
2022-08-22T01:48:27.296Z,21.37
2022-08-22T01:51:21.358Z,21.36
2022-08-22T01:54:08.772Z,21.34
2022-08-22T01:56:48.446Z,21.33
2022-08-22T01:59:46.236Z,21.34
2022-08-22T02:03:06.448Z,21.37
2022-08-22T02:06:02.956Z,21.39
2022-08-22T02:09:38.245Z,21.39
2022-08-22T02:12:21.652Z,21.38
2022-08-22T02:15:07.505Z,21.36
2022-08-22T02:18:01.146Z,21.35
2022-08-22T02:20:57.944Z,21.36
2022-08-22T02:23:32.445Z,21.35
2022-08-22T02:26:51.440Z,21.37
2022-08-22T02:29:49.058Z,21.41
2022-08-22T02:32:49.928Z,21.47
2022-08-22T02:35:48.010Z,21.52
2022-08-22T02:38:59.534Z,21.54
2022-08-22T02:41:40.097Z,21.53
2022-08-22T02:44:24.939Z,21.52
2022-08-22T02:47:13.570Z,21.49
2022-08-22T02:50:19.847Z,21.50
2022-08-22T02:53:04.125Z,21.50
2022-08-22T02:55:51.301Z,21.49
2022-08-22T02:58:45.603Z,21.46
2022-08-22T03:01:34.481Z,21.46
2022-08-22T03:04:38.384Z,21.48
2022-08-22T03:07:25.938Z,21.52
2022-08-22T03:10:20.636Z,21.57
2022-08-22T03:13:02.390Z,21.64
2022-08-22T03:15:54.850Z,21.71
2022-08-22T03:18:49.782Z,21.78
2022-08-22T03:21:31.673Z,21.85
2022-08-22T03:24:20.404Z,21.89
2022-08-22T03:27:44.659Z,21.93
2022-08-22T03:30:36.125Z,21.97
2022-08-22T03:33:27.704Z,22.00
2022-08-22T03:36:31.402Z,22.04
2022-08-22T03:39:20.092Z,22.06
2022-08-22T03:42:04.772Z,22.06
2022-08-22T03:45:03.894Z,22.04
2022-08-22T03:48:18.431Z,22.05
2022-08-22T03:51:35.569Z,22.07
2022-08-22T03:54:48.164Z,22.11
2022-08-22T03:57:48.112Z,22.15
2022-08-22T04:00:26.805Z,22.21
2022-08-22T04:03:39.740Z,22.24
2022-08-22T04:06:53.748Z,22.30
2022-08-22T04:09:52.240Z,22.38
2022-08-22T04:12:48.833Z,22.45
2022-08-22T04:15:30.525Z,22.54
2022-08-22T04:18:33.506Z,22.60
2022-08-22T04:21:28.202Z,22.68
2022-08-22T04:24:33.298Z,22.76
2022-08-22T04:27:16.701Z,22.85
2022-08-22T04:30:16.385Z,22.94
2022-08-22T04:33:01.970Z,23.02
2022-08-22T04:35:59.331Z,23.09
2022-08-22T04:38:51.864Z,23.17
2022-08-22T04:42:16.266Z,23.24
2022-08-22T04:45:06.237Z,23.35
2022-08-22T04:48:09.253Z,23.41
2022-08-22T04:51:00.733Z,23.48
2022-08-22T04:53:50.726Z,23.50
2022-08-22T04:56:39.519Z,23.51
2022-08-22T04:59:21.139Z,23.53
2022-08-22T05:02:08.664Z,23.55
2022-08-22T05:04:54.323Z,23.57
2022-08-22T05:07:38.014Z,23.60
2022-08-22T05:10:30.864Z,23.64
2022-08-22T05:13:19.984Z,23.70
2022-08-22T05:16:02.271Z,23.77
2022-08-22T05:18:45.932Z,23.84
2022-08-22T05:21:30.742Z,23.90
2022-08-22T05:24:14.238Z,23.98
2022-08-22T05:26:57.115Z,24.03
2022-08-22T05:29:35.644Z,24.06
2022-08-22T05:32:25.407Z,24.13
2022-08-22T05:35:06.048Z,24.21
2022-08-22T05:37:51.035Z,24.28
2022-08-22T05:40:31.487Z,24.39
2022-08-22T05:43:17.303Z,24.48
2022-08-22T05:45:55.936Z,24.59
2022-08-22T05:49:02.711Z,24.90
2022-08-22T05:51:53.314Z,25.41
2022-08-22T05:54:34.974Z,25.80
2022-08-22T05:57:21.630Z,26.11
2022-08-22T06:00:15.109Z,26.28
2022-08-22T06:03:22.196Z,26.37
2022-08-22T06:06:06.656Z,26.47
2022-08-22T06:09:07.329Z,26.70
2022-08-22T06:12:15.048Z,26.96
2022-08-22T06:15:25.729Z,27.09
2022-08-22T06:18:12.437Z,27.23
2022-08-22T06:21:05.984Z,27.34
2022-08-22T06:23:51.562Z,27.36
2022-08-22T06:26:40.156Z,27.37
2022-08-22T06:29:26.053Z,27.51
2022-08-22T06:32:03.361Z,27.62
2022-08-22T06:34:48.213Z,27.73
2022-08-22T06:37:36.579Z,27.72
2022-08-22T06:40:17.314Z,27.69
2022-08-22T06:42:52.495Z,27.69
2022-08-22T06:45:38.380Z,27.63
2022-08-22T06:48:21.965Z,27.53
2022-08-22T06:51:05.557Z,27.42
2022-08-22T06:53:55.080Z,27.34
2022-08-22T06:56:44.766Z,27.38
2022-08-22T06:59:26.269Z,27.50
2022-08-22T07:02:14.033Z,27.64
2022-08-22T07:04:55.501Z,27.76
2022-08-22T07:07:31.999Z,27.84
2022-08-22T07:10:13.566Z,27.90
2022-08-22T07:12:56.426Z,27.98
2022-08-22T07:15:39.790Z,28.19
2022-08-22T07:18:23.789Z,28.46
2022-08-22T07:21:06.164Z,28.70
2022-08-22T07:23:50.723Z,28.80
2022-08-22T07:26:42.949Z,28.68
2022-08-22T07:29:36.989Z,28.66
2022-08-22T07:32:19.182Z,28.87
2022-08-22T07:35:11.841Z,29.22
2022-08-22T07:38:19.471Z,29.56
2022-08-22T07:41:05.179Z,29.91
2022-08-22T07:43:49.473Z,30.20
2022-08-22T07:46:41.086Z,30.58
2022-08-22T07:49:25.477Z,30.81
2022-08-22T07:52:11.296Z,30.59
2022-08-22T07:55:09.600Z,30.77
2022-08-22T07:58:06.593Z,31.23
2022-08-22T08:00:48.882Z,31.57
2022-08-22T08:03:32.132Z,31.71
2022-08-22T08:06:10.609Z,31.80
2022-08-22T08:08:48.302Z,31.94
2022-08-22T08:11:26.534Z,32.11
2022-08-22T08:14:10.080Z,32.24
2022-08-22T08:17:16.930Z,32.50
2022-08-22T08:19:54.976Z,32.66
2022-08-22T08:22:32.691Z,32.67
2022-08-22T08:25:13.080Z,32.62
2022-08-22T08:28:11.467Z,32.51
2022-08-22T08:31:01.820Z,32.39
2022-08-22T08:33:37.539Z,32.53
2022-08-22T08:36:56.831Z,32.74
2022-08-22T08:39:41.374Z,33.05
2022-08-22T08:42:58.517Z,33.15
2022-08-22T08:45:56.401Z,33.66
2022-08-22T08:49:06.678Z,34.26
2022-08-22T08:51:51.623Z,34.50
2022-08-22T08:54:56.022Z,34.45
2022-08-22T08:57:52.380Z,34.52
2022-08-22T09:00:48.902Z,34.57
2022-08-22T09:04:01.735Z,34.05
2022-08-22T09:06:56.592Z,33.77
2022-08-22T09:09:57.507Z,33.74
2022-08-22T09:13:26.088Z,33.70
2022-08-22T09:19:07.039Z,33.57
2022-08-22T09:22:21.428Z,33.62
2022-08-22T09:25:36.808Z,34.23
2022-08-22T09:28:55.477Z,35.02
2022-08-22T09:32:07.166Z,35.23
2022-08-22T09:34:53.263Z,35.23
2022-08-22T09:37:37.729Z,35.17
2022-08-22T09:40:16.361Z,33.69
2022-08-22T09:40:33.368Z,35.09
2022-08-22T09:43:24.270Z,35.04
2022-08-22T09:46:18.672Z,35.22
2022-08-22T09:49:05.531Z,35.32
2022-08-22T09:52:33.909Z,35.23
2022-08-22T09:55:35.530Z,35.27
2022-08-22T09:58:41.694Z,35.34
2022-08-22T10:01:47.878Z,35.02
2022-08-22T10:04:32.187Z,34.90
2022-08-22T10:07:23.099Z,34.82
2022-08-22T10:10:21.452Z,34.75
2022-08-22T10:13:14.862Z,34.64
2022-08-22T10:16:19.087Z,34.55
2022-08-22T10:19:05.371Z,34.75
2022-08-22T10:21:45.719Z,34.38
2022-08-22T10:25:08.371Z,34.32
2022-08-22T10:28:21.261Z,33.96
2022-08-22T10:31:27.450Z,34.03
2022-08-22T10:34:28.700Z,34.48
2022-08-22T10:37:50.365Z,34.75
2022-08-22T10:40:31.673Z,34.36
2022-08-22T10:43:48.041Z,33.90
2022-08-22T10:46:38.307Z,33.33
2022-08-22T10:49:22.588Z,33.01
2022-08-22T10:52:15.773Z,32.81
2022-08-22T10:55:22.683Z,32.58
2022-08-22T10:58:10.776Z,32.28
2022-08-22T11:01:37.035Z,32.18
2022-08-22T11:04:33.975Z,32.07
2022-08-22T11:07:29.644Z,31.98
2022-08-22T11:10:11.999Z,31.73
2022-08-22T11:13:16.438Z,31.40
2022-08-22T11:16:20.213Z,31.15
2022-08-22T11:19:15.851Z,31.03
2022-08-22T11:22:03.649Z,30.96
2022-08-22T11:25:08.942Z,30.92
2022-08-22T11:28:05.495Z,30.91
2022-08-22T11:31:14.618Z,30.94
2022-08-22T11:34:13.718Z,31.02
2022-08-22T11:36:57.272Z,31.15
2022-08-22T11:39:42.444Z,31.59
2022-08-22T11:42:59.095Z,32.17
2022-08-22T11:45:47.992Z,32.86
2022-08-22T11:48:48.709Z,33.42
2022-08-22T11:52:00.437Z,33.60
2022-08-22T11:54:48.068Z,33.65
2022-08-22T11:57:39.078Z,33.79
2022-08-22T12:00:31.724Z,34.26
2022-08-22T12:03:39.839Z,34.52
2022-08-22T12:06:47.236Z,34.78
2022-08-22T12:09:47.696Z,35.00
2022-08-22T12:12:26.696Z,34.98
2022-08-22T12:15:13.980Z,35.14
2022-08-22T12:18:10.902Z,35.45
2022-08-22T12:21:18.873Z,35.82
2022-08-22T12:24:21.446Z,36.20
2022-08-22T12:27:11.706Z,35.94
2022-08-22T12:30:21.223Z,35.65
2022-08-22T12:33:26.870Z,35.87
2022-08-22T12:36:18.015Z,36.47
2022-08-22T12:39:28.924Z,37.08
2022-08-22T12:42:13.303Z,37.43
2022-08-22T12:45:08.103Z,37.32
2022-08-22T12:48:24.895Z,36.99
2022-08-22T12:51:18.321Z,36.64
2022-08-22T12:54:21.616Z,36.29
2022-08-22T12:56:54.163Z,36.08
2022-08-22T12:59:36.213Z,35.98
2022-08-22T13:02:23.638Z,36.21
2022-08-22T13:05:27.584Z,36.44
2022-08-22T13:08:12.998Z,36.63
2022-08-22T13:10:57.049Z,36.77
2022-08-22T13:13:38.927Z,36.83
2022-08-22T13:16:20.856Z,37.04
2022-08-22T13:19:07.868Z,37.36
2022-08-22T13:21:55.061Z,37.83
2022-08-22T13:24:40.983Z,38.19
2022-08-22T13:27:40.621Z,38.50
2022-08-22T13:30:37.588Z,38.63
2022-08-22T13:33:41.498Z,38.22
2022-08-22T13:36:24.129Z,37.96
2022-08-22T13:39:19.711Z,38.04
2022-08-22T13:42:04.439Z,38.17
2022-08-22T13:44:55.978Z,38.34
2022-08-22T13:47:34.551Z,38.64
2022-08-22T13:50:26.736Z,38.95
2022-08-22T13:53:37.369Z,39.21
2022-08-22T13:56:22.424Z,39.35
2022-08-22T13:59:03.740Z,39.49
2022-08-22T14:01:56.734Z,39.38
2022-08-22T14:04:36.690Z,39.41
2022-08-22T14:07:13.021Z,39.35
2022-08-22T14:10:14.987Z,39.42
2022-08-22T14:12:58.981Z,39.63
2022-08-22T14:15:44.907Z,39.72
2022-08-22T14:18:45.685Z,39.55
2022-08-22T14:21:33.498Z,39.53
2022-08-22T14:24:27.027Z,39.58
2022-08-22T14:27:17.656Z,39.68
2022-08-22T14:30:00.230Z,39.69
2022-08-22T14:32:53.498Z,39.60
2022-08-22T14:35:52.675Z,39.63
2022-08-22T14:38:33.574Z,39.75
2022-08-22T14:41:19.779Z,39.83
2022-08-22T14:43:59.064Z,39.42
2022-08-22T14:46:48.995Z,38.77
2022-08-22T14:49:30.902Z,37.65
2022-08-22T14:52:19.619Z,36.47
2022-08-22T14:55:15.836Z,35.34
2022-08-22T14:57:58.687Z,34.31
2022-08-22T15:00:41.983Z,33.47
2022-08-22T15:03:42.720Z,32.67
2022-08-22T15:06:38.198Z,31.92
2022-08-22T15:09:36.965Z,31.35
2022-08-22T15:12:28.470Z,30.81
2022-08-22T15:15:09.385Z,30.48
2022-08-22T15:17:54.590Z,30.15
2022-08-22T15:20:45.253Z,29.87
2022-08-22T15:23:29.943Z,29.63
2022-08-22T15:26:13.312Z,29.43
2022-08-22T15:29:00.218Z,29.29
2022-08-22T15:31:39.702Z,29.22
2022-08-22T15:34:33.608Z,29.19
2022-08-22T15:37:21.078Z,29.12
2022-08-22T15:40:12.509Z,29.23
2022-08-22T15:42:55.723Z,29.56
2022-08-22T15:45:39.031Z,29.94
2022-08-22T15:48:34.613Z,30.33
2022-08-22T15:51:17.337Z,30.70
2022-08-22T15:54:16.591Z,30.87
2022-08-22T15:57:21.520Z,30.87
2022-08-22T16:00:12.012Z,30.76
2022-08-22T16:03:12.054Z,30.66
2022-08-22T16:06:07.566Z,30.52
2022-08-22T16:08:55.502Z,30.33
2022-08-22T16:11:37.081Z,30.06
2022-08-22T16:14:21.545Z,29.74
2022-08-22T16:17:10.564Z,29.38
2022-08-22T16:19:47.865Z,29.05
2022-08-22T16:22:27.970Z,28.84
2022-08-22T16:25:07.103Z,28.62
2022-08-22T16:27:59.052Z,28.42
2022-08-22T16:30:40.343Z,28.21
2022-08-22T16:33:33.310Z,28.04
2022-08-22T16:36:25.464Z,27.87
2022-08-22T16:39:01.303Z,27.70
2022-08-22T16:41:43.926Z,27.57
2022-08-22T16:44:25.681Z,27.44
2022-08-22T16:47:14.610Z,27.23
2022-08-22T16:49:59.345Z,27.06
2022-08-22T16:52:33.729Z,26.90
2022-08-22T16:55:36.609Z,26.76
2022-08-22T16:58:56.920Z,26.59
2022-08-22T17:02:00.997Z,26.38
2022-08-22T17:04:54.570Z,26.23
2022-08-22T17:07:44.431Z,26.11
2022-08-22T17:10:17.968Z,26.02
2022-08-22T17:13:09.928Z,25.92
2022-08-22T17:16:01.529Z,25.80
2022-08-22T17:18:55.890Z,25.66
2022-08-22T17:21:34.126Z,25.55
2022-08-22T17:24:32.090Z,25.47
2022-08-22T17:27:34.710Z,25.38
2022-08-22T17:30:34.912Z,25.29
2022-08-22T17:33:31.582Z,25.20
2022-08-22T17:36:50.441Z,25.10
2022-08-22T17:40:19.820Z,24.98
2022-08-22T17:43:42.992Z,24.87
2022-08-22T17:46:44.629Z,24.75
2022-08-22T17:49:20.035Z,24.68
2022-08-22T17:52:24.425Z,24.63
2022-08-22T17:55:24.022Z,24.59
2022-08-22T17:58:31.870Z,24.51
2022-08-22T18:01:33.598Z,24.46
2022-08-22T18:04:25.750Z,24.44
2022-08-22T18:07:30.524Z,24.41
2022-08-22T18:10:09.173Z,24.39
2022-08-22T18:13:04.761Z,24.34
2022-08-22T18:16:11.702Z,24.30
2022-08-22T18:19:22.372Z,24.25
2022-08-22T18:22:38.370Z,24.20
2022-08-22T18:25:25.535Z,24.17
2022-08-22T18:28:19.061Z,24.16
2022-08-22T18:31:14.008Z,24.16
2022-08-22T18:34:03.267Z,24.15
2022-08-22T18:36:54.846Z,24.10
2022-08-22T18:39:50.848Z,24.06
2022-08-22T18:42:41.897Z,24.00
2022-08-22T18:45:50.199Z,23.95
2022-08-22T18:48:33.455Z,23.88
2022-08-22T18:51:30.617Z,23.83
2022-08-22T18:54:09.974Z,23.81
2022-08-22T18:57:11.029Z,23.80
2022-08-22T19:00:05.557Z,23.78
2022-08-22T19:03:17.580Z,23.78
2022-08-22T19:06:07.408Z,23.78
2022-08-22T19:09:28.563Z,23.81
2022-08-22T19:12:25.880Z,23.83
2022-08-22T19:15:12.242Z,23.83
2022-08-22T19:18:01.237Z,23.83
2022-08-22T19:20:59.894Z,23.83
2022-08-22T19:23:42.204Z,23.82
2022-08-22T19:26:21.641Z,23.78
2022-08-22T19:29:10.879Z,23.76
2022-08-22T19:31:45.110Z,23.74
2022-08-22T19:34:30.507Z,23.71
2022-08-22T19:37:32.861Z,23.68
2022-08-22T19:40:12.915Z,23.64
2022-08-22T19:42:52.535Z,23.61
2022-08-22T19:45:34.763Z,23.58
2022-08-22T19:48:14.969Z,23.56
2022-08-22T19:51:35.624Z,23.56
2022-08-22T19:54:23.482Z,23.55
2022-08-22T19:57:16.706Z,23.55
2022-08-22T20:00:14.938Z,23.57
2022-08-22T20:03:03.704Z,23.59
2022-08-22T20:05:57.028Z,23.58
2022-08-22T20:08:47.657Z,23.58
2022-08-22T20:11:26.071Z,23.57
2022-08-22T20:14:30.693Z,23.56
2022-08-22T20:17:25.509Z,23.56
2022-08-22T20:20:41.207Z,23.56
2022-08-22T20:23:28.312Z,23.55
2022-08-22T20:26:07.807Z,23.56
2022-08-22T20:28:41.205Z,23.55
2022-08-22T20:31:29.162Z,23.52
2022-08-22T20:34:15.679Z,23.45
2022-08-22T20:37:16.072Z,23.39
2022-08-22T20:39:59.243Z,23.34
2022-08-22T20:42:38.117Z,23.29
2022-08-22T20:45:29.595Z,23.26
2022-08-22T20:48:14.448Z,23.21
2022-08-22T20:50:56.059Z,23.17
2022-08-22T20:53:35.787Z,23.13
2022-08-22T20:56:12.349Z,23.12
2022-08-22T20:58:53.157Z,23.07
2022-08-22T21:01:29.757Z,23.05
2022-08-22T21:04:10.553Z,23.02
2022-08-22T21:06:50.375Z,23.01
2022-08-22T21:09:46.789Z,22.99
2022-08-22T21:12:26.592Z,22.96
2022-08-22T21:15:08.484Z,22.94
2022-08-22T21:17:51.007Z,22.92
2022-08-22T21:20:36.799Z,22.91
2022-08-22T21:23:18.396Z,22.89
2022-08-22T21:25:57.119Z,22.87
2022-08-22T21:28:38.057Z,22.87
2022-08-22T21:31:19.583Z,22.85
2022-08-22T21:33:58.174Z,22.84
2022-08-22T21:36:39.083Z,22.79
2022-08-22T21:39:32.637Z,22.76
2022-08-22T21:42:18.569Z,22.74
2022-08-22T21:45:05.087Z,22.71
2022-08-22T21:47:45.904Z,22.68
2022-08-22T21:50:27.836Z,22.65
2022-08-22T21:53:12.053Z,22.60
2022-08-22T21:55:53.952Z,22.52
2022-08-22T21:58:37.367Z,22.45
2022-08-22T22:01:29.067Z,22.42
2022-08-22T22:04:07.197Z,22.39
2022-08-22T22:06:42.597Z,22.33
2022-08-22T22:09:25.598Z,22.28
2022-08-22T22:12:10.240Z,22.22
2022-08-22T22:14:53.051Z,22.19
2022-08-22T22:17:31.927Z,22.15
2022-08-22T22:20:12.385Z,22.13
2022-08-22T22:22:58.112Z,22.09
2022-08-22T22:25:42.128Z,22.06
2022-08-22T22:28:20.540Z,22.04
2022-08-22T22:31:02.760Z,22.02
2022-08-22T22:33:42.026Z,22.00
2022-08-22T22:36:29.987Z,21.96
2022-08-22T22:39:11.772Z,21.93
2022-08-22T22:41:51.502Z,21.92
2022-08-22T22:44:29.980Z,21.91
2022-08-22T22:47:11.869Z,21.89
2022-08-22T22:49:52.381Z,21.88
2022-08-22T22:52:33.940Z,21.86
2022-08-22T22:55:24.143Z,21.86
2022-08-22T22:58:03.883Z,21.86
2022-08-22T23:00:47.356Z,21.84
2022-08-22T23:03:25.142Z,21.82
2022-08-22T23:06:05.724Z,21.79
2022-08-22T23:08:47.000Z,21.77
2022-08-22T23:11:31.198Z,21.76
2022-08-22T23:14:13.117Z,21.75
2022-08-22T23:16:50.623Z,21.74
2022-08-22T23:19:30.599Z,21.73
2022-08-22T23:22:11.066Z,21.70
2022-08-22T23:24:50.985Z,21.68
2022-08-22T23:27:31.749Z,21.66
2022-08-22T23:30:14.434Z,21.63
2022-08-22T23:32:57.951Z,21.60
2022-08-22T23:35:40.208Z,21.55
2022-08-22T23:38:21.403Z,21.52
2022-08-22T23:41:01.351Z,21.49
2022-08-22T23:43:40.894Z,21.46
2022-08-22T23:46:21.890Z,21.42
2022-08-22T23:49:00.355Z,21.37
2022-08-22T23:51:40.294Z,21.32
2022-08-22T23:54:20.922Z,21.26
2022-08-22T23:57:03.782Z,21.23
2022-08-22T23:59:57.914Z,21.20
